sensor_id;sensor_type;location;lat;lon;timestamp;P1;durP1;ratioP1;P2;durP2;ratioP2
75760;SDS011;64373;46.136;8.830;2023-07-30T00:00:21;3.78;;;3.13;;
75760;SDS011;64373;46.136;8.830;2023-07-30T00:02:47;4.43;;;3.20;;
75760;SDS011;64373;46.136;8.830;2023-07-30T00:05:12;4.35;;;3.47;;
75760;SDS011;64373;46.136;8.830;2023-07-30T00:07:38;4.93;;;3.67;;
75760;SDS011;64373;46.136;8.830;2023-07-30T00:10:03;3.70;;;3.30;;
75760;SDS011;64373;46.136;8.830;2023-07-30T00:12:30;4.00;;;3.60;;
75760;SDS011;64373;46.136;8.830;2023-07-30T00:14:55;4.60;;;3.90;;
75760;SDS011;64373;46.136;8.830;2023-07-30T00:17:21;4.28;;;3.67;;
75760;SDS011;64373;46.136;8.830;2023-07-30T00:19:46;4.28;;;3.88;;
75760;SDS011;64373;46.136;8.830;2023-07-30T00:22:12;4.57;;;4.18;;
75760;SDS011;64373;46.136;8.830;2023-07-30T00:24:37;3.92;;;3.63;;
75760;SDS011;64373;46.136;8.830;2023-07-30T00:27:03;4.22;;;3.83;;
75760;SDS011;64373;46.136;8.830;2023-07-30T00:29:28;3.72;;;3.42;;
75760;SDS011;64373;46.136;8.830;2023-07-30T00:31:54;4.80;;;4.05;;
75760;SDS011;64373;46.136;8.830;2023-07-30T00:34:19;4.70;;;4.20;;
75760;SDS011;64373;46.136;8.830;2023-07-30T00:36:45;5.25;;;4.07;;
75760;SDS011;64373;46.136;8.830;2023-07-30T00:39:10;5.47;;;4.47;;
75760;SDS011;64373;46.136;8.830;2023-07-30T00:41:36;4.38;;;3.97;;
75760;SDS011;64373;46.136;8.830;2023-07-30T00:44:02;4.03;;;3.70;;
75760;SDS011;64373;46.136;8.830;2023-07-30T00:46:28;5.20;;;3.92;;
75760;SDS011;64373;46.136;8.830;2023-07-30T00:48:53;3.92;;;3.30;;
75760;SDS011;64373;46.136;8.830;2023-07-30T00:51:19;4.18;;;3.50;;
75760;SDS011;64373;46.136;8.830;2023-07-30T00:53:45;3.70;;;3.40;;
75760;SDS011;64373;46.136;8.830;2023-07-30T00:56:11;3.80;;;3.40;;
75760;SDS011;64373;46.136;8.830;2023-07-30T00:58:37;3.65;;;3.17;;
75760;SDS011;64373;46.136;8.830;2023-07-30T01:01:02;4.10;;;3.80;;
75760;SDS011;64373;46.136;8.830;2023-07-30T01:03:28;3.20;;;2.90;;
75760;SDS011;64373;46.136;8.830;2023-07-30T01:05:54;4.38;;;3.60;;
75760;SDS011;64373;46.136;8.830;2023-07-30T01:08:19;5.35;;;3.83;;
75760;SDS011;64373;46.136;8.830;2023-07-30T01:10:45;3.88;;;3.42;;
75760;SDS011;64373;46.136;8.830;2023-07-30T01:13:10;3.10;;;2.83;;
75760;SDS011;64373;46.136;8.830;2023-07-30T01:15:37;2.80;;;2.50;;
75760;SDS011;64373;46.136;8.830;2023-07-30T01:18:03;3.28;;;2.97;;
75760;SDS011;64373;46.136;8.830;2023-07-30T01:20:29;3.70;;;3.13;;
75760;SDS011;64373;46.136;8.830;2023-07-30T01:22:56;3.55;;;3.25;;
75760;SDS011;64373;46.136;8.830;2023-07-30T01:25:25;3.30;;;3.00;;
75760;SDS011;64373;46.136;8.830;2023-07-30T01:27:54;2.60;;;2.40;;
75760;SDS011;64373;46.136;8.830;2023-07-30T01:30:21;3.45;;;2.65;;
75760;SDS011;64373;46.136;8.830;2023-07-30T01:32:51;3.83;;;3.50;;
75760;SDS011;64373;46.136;8.830;2023-07-30T01:35:18;4.63;;;3.58;;
75760;SDS011;64373;46.136;8.830;2023-07-30T01:37:46;4.53;;;3.80;;
75760;SDS011;64373;46.136;8.830;2023-07-30T01:40:13;3.72;;;3.40;;
75760;SDS011;64373;46.136;8.830;2023-07-30T01:42:39;4.15;;;3.50;;
75760;SDS011;64373;46.136;8.830;2023-07-30T01:45:04;3.60;;;3.30;;
75760;SDS011;64373;46.136;8.830;2023-07-30T01:47:33;4.10;;;3.70;;
75760;SDS011;64373;46.136;8.830;2023-07-30T01:49:59;3.72;;;3.42;;
75760;SDS011;64373;46.136;8.830;2023-07-30T01:52:25;3.70;;;3.10;;
75760;SDS011;64373;46.136;8.830;2023-07-30T01:54:50;3.38;;;3.08;;
75760;SDS011;64373;46.136;8.830;2023-07-30T01:57:16;2.88;;;2.60;;
75760;SDS011;64373;46.136;8.830;2023-07-30T01:59:41;2.97;;;2.60;;
75760;SDS011;64373;46.136;8.830;2023-07-30T02:02:07;3.50;;;2.88;;
75760;SDS011;64373;46.136;8.830;2023-07-30T02:04:33;3.00;;;2.70;;
75760;SDS011;64373;46.136;8.830;2023-07-30T02:06:58;3.28;;;2.97;;
75760;SDS011;64373;46.136;8.830;2023-07-30T02:09:24;3.38;;;3.08;;
75760;SDS011;64373;46.136;8.830;2023-07-30T02:11:50;3.10;;;2.80;;
75760;SDS011;64373;46.136;8.830;2023-07-30T02:14:17;3.13;;;2.83;;
75760;SDS011;64373;46.136;8.830;2023-07-30T02:16:43;3.20;;;2.90;;
75760;SDS011;64373;46.136;8.830;2023-07-30T02:19:08;3.13;;;2.83;;
75760;SDS011;64373;46.136;8.830;2023-07-30T02:21:34;4.00;;;3.50;;
75760;SDS011;64373;46.136;8.830;2023-07-30T02:24:02;4.22;;;3.83;;
75760;SDS011;64373;46.136;8.830;2023-07-30T02:26:27;4.00;;;3.00;;
75760;SDS011;64373;46.136;8.830;2023-07-30T02:28:53;3.45;;;3.15;;
75760;SDS011;64373;46.136;8.830;2023-07-30T02:31:18;3.75;;;3.17;;
75760;SDS011;64373;46.136;8.830;2023-07-30T02:33:44;4.10;;;3.20;;
75760;SDS011;64373;46.136;8.830;2023-07-30T02:36:09;3.25;;;2.95;;
75760;SDS011;64373;46.136;8.830;2023-07-30T02:38:35;3.88;;;3.50;;
75760;SDS011;64373;46.136;8.830;2023-07-30T02:41:00;4.25;;;3.33;;
75760;SDS011;64373;46.136;8.830;2023-07-30T02:43:26;3.40;;;3.10;;
75760;SDS011;64373;46.136;8.830;2023-07-30T02:45:51;3.72;;;3.30;;
75760;SDS011;64373;46.136;8.830;2023-07-30T02:48:17;3.20;;;2.90;;
75760;SDS011;64373;46.136;8.830;2023-07-30T02:50:43;3.22;;;2.92;;
75760;SDS011;64373;46.136;8.830;2023-07-30T02:53:08;4.78;;;3.28;;
75760;SDS011;64373;46.136;8.830;2023-07-30T02:55:34;4.00;;;3.47;;
75760;SDS011;64373;46.136;8.830;2023-07-30T02:57:59;3.80;;;3.30;;
75760;SDS011;64373;46.136;8.830;2023-07-30T03:00:25;3.40;;;3.10;;
75760;SDS011;64373;46.136;8.830;2023-07-30T03:02:50;3.50;;;3.08;;
75760;SDS011;64373;46.136;8.830;2023-07-30T03:05:16;4.10;;;3.70;;
75760;SDS011;64373;46.136;8.830;2023-07-30T03:07:41;4.70;;;4.05;;
75760;SDS011;64373;46.136;8.830;2023-07-30T03:10:07;4.63;;;4.07;;
75760;SDS011;64373;46.136;8.830;2023-07-30T03:12:33;5.13;;;4.07;;
75760;SDS011;64373;46.136;8.830;2023-07-30T03:14:58;4.65;;;3.65;;
75760;SDS011;64373;46.136;8.830;2023-07-30T03:17:24;5.25;;;3.95;;
75760;SDS011;64373;46.136;8.830;2023-07-30T03:19:50;4.25;;;3.75;;
75760;SDS011;64373;46.136;8.830;2023-07-30T03:22:16;4.68;;;4.00;;
75760;SDS011;64373;46.136;8.830;2023-07-30T03:24:41;5.28;;;4.20;;
75760;SDS011;64373;46.136;8.830;2023-07-30T03:27:07;4.00;;;3.60;;
75760;SDS011;64373;46.136;8.830;2023-07-30T03:29:32;4.05;;;3.08;;
75760;SDS011;64373;46.136;8.830;2023-07-30T03:31:57;3.67;;;3.38;;
75760;SDS011;64373;46.136;8.830;2023-07-30T03:34:23;3.47;;;3.17;;
75760;SDS011;64373;46.136;8.830;2023-07-30T03:36:48;4.15;;;3.58;;
75760;SDS011;64373;46.136;8.830;2023-07-30T03:39:14;4.70;;;3.85;;
75760;SDS011;64373;46.136;8.830;2023-07-30T03:41:40;3.40;;;3.10;;
75760;SDS011;64373;46.136;8.830;2023-07-30T03:44:05;4.28;;;2.85;;
75760;SDS011;64373;46.136;8.830;2023-07-30T03:46:31;3.35;;;3.05;;
75760;SDS011;64373;46.136;8.830;2023-07-30T03:48:56;4.10;;;3.70;;
75760;SDS011;64373;46.136;8.830;2023-07-30T03:51:21;3.40;;;3.10;;
75760;SDS011;64373;46.136;8.830;2023-07-30T03:53:47;6.55;;;4.15;;
75760;SDS011;64373;46.136;8.830;2023-07-30T03:56:12;4.13;;;3.70;;
75760;SDS011;64373;46.136;8.830;2023-07-30T03:58:38;3.50;;;3.20;;
75760;SDS011;64373;46.136;8.830;2023-07-30T04:01:03;3.92;;;3.47;;
75760;SDS011;64373;46.136;8.830;2023-07-30T04:03:29;4.07;;;3.60;;
75760;SDS011;64373;46.136;8.830;2023-07-30T04:05:54;4.80;;;3.97;;
75760;SDS011;64373;46.136;8.830;2023-07-30T04:08:20;3.55;;;3.22;;
75760;SDS011;64373;46.136;8.830;2023-07-30T04:10:46;3.83;;;3.45;;
75760;SDS011;64373;46.136;8.830;2023-07-30T04:13:11;3.42;;;3.10;;
75760;SDS011;64373;46.136;8.830;2023-07-30T04:15:37;3.47;;;3.17;;
75760;SDS011;64373;46.136;8.830;2023-07-30T04:18:02;3.20;;;2.90;;
75760;SDS011;64373;46.136;8.830;2023-07-30T04:20:29;3.35;;;3.05;;
75760;SDS011;64373;46.136;8.830;2023-07-30T04:22:55;3.55;;;3.25;;
75760;SDS011;64373;46.136;8.830;2023-07-30T04:25:20;4.03;;;3.38;;
75760;SDS011;64373;46.136;8.830;2023-07-30T04:27:46;3.63;;;3.00;;
75760;SDS011;64373;46.136;8.830;2023-07-30T04:30:11;3.25;;;2.95;;
75760;SDS011;64373;46.136;8.830;2023-07-30T04:32:37;2.72;;;2.53;;
75760;SDS011;64373;46.136;8.830;2023-07-30T04:35:02;3.85;;;2.63;;
75760;SDS011;64373;46.136;8.830;2023-07-30T04:37:28;2.45;;;2.25;;
75760;SDS011;64373;46.136;8.830;2023-07-30T04:39:54;3.42;;;3.13;;
75760;SDS011;64373;46.136;8.830;2023-07-30T04:42:20;2.92;;;2.63;;
75760;SDS011;64373;46.136;8.830;2023-07-30T04:44:45;3.13;;;2.83;;
75760;SDS011;64373;46.136;8.830;2023-07-30T04:47:11;3.22;;;2.67;;
75760;SDS011;64373;46.136;8.830;2023-07-30T04:49:36;3.03;;;2.75;;
75760;SDS011;64373;46.136;8.830;2023-07-30T04:52:05;3.55;;;3.10;;
75760;SDS011;64373;46.136;8.830;2023-07-30T04:54:32;5.63;;;3.00;;
75760;SDS011;64373;46.136;8.830;2023-07-30T04:56:58;3.13;;;2.75;;
75760;SDS011;64373;46.136;8.830;2023-07-30T04:59:24;3.00;;;2.80;;
75760;SDS011;64373;46.136;8.830;2023-07-30T05:01:49;2.60;;;2.40;;
75760;SDS011;64373;46.136;8.830;2023-07-30T05:04:15;2.60;;;2.40;;
75760;SDS011;64373;46.136;8.830;2023-07-30T05:06:40;3.15;;;2.85;;
75760;SDS011;64373;46.136;8.830;2023-07-30T05:09:06;2.63;;;2.42;;
75760;SDS011;64373;46.136;8.830;2023-07-30T05:11:34;2.83;;;2.50;;
75760;SDS011;64373;46.136;8.830;2023-07-30T05:14:00;4.05;;;2.95;;
75760;SDS011;64373;46.136;8.830;2023-07-30T05:16:25;4.18;;;3.58;;
75760;SDS011;64373;46.136;8.830;2023-07-30T05:18:51;3.42;;;3.13;;
75760;SDS011;64373;46.136;8.830;2023-07-30T05:21:16;3.58;;;3.13;;
75760;SDS011;64373;46.136;8.830;2023-07-30T05:23:42;3.58;;;3.28;;
75760;SDS011;64373;46.136;8.830;2023-07-30T05:26:07;3.80;;;3.00;;
75760;SDS011;64373;46.136;8.830;2023-07-30T05:28:33;3.45;;;3.15;;
75760;SDS011;64373;46.136;8.830;2023-07-30T05:30:58;4.35;;;3.65;;
75760;SDS011;64373;46.136;8.830;2023-07-30T05:33:24;3.47;;;3.17;;
75760;SDS011;64373;46.136;8.830;2023-07-30T05:35:49;3.33;;;3.03;;
75760;SDS011;64373;46.136;8.830;2023-07-30T05:38:15;3.10;;;2.80;;
75760;SDS011;64373;46.136;8.830;2023-07-30T05:40:41;4.38;;;3.97;;
75760;SDS011;64373;46.136;8.830;2023-07-30T05:43:07;3.40;;;2.97;;
75760;SDS011;64373;46.136;8.830;2023-07-30T05:45:33;3.50;;;3.05;;
75760;SDS011;64373;46.136;8.830;2023-07-30T05:47:59;4.20;;;2.90;;
75760;SDS011;64373;46.136;8.830;2023-07-30T05:50:24;4.15;;;3.00;;
75760;SDS011;64373;46.136;8.830;2023-07-30T05:52:50;3.15;;;2.90;;
75760;SDS011;64373;46.136;8.830;2023-07-30T05:55:15;3.40;;;3.10;;
75760;SDS011;64373;46.136;8.830;2023-07-30T05:57:41;3.60;;;3.30;;
75760;SDS011;64373;46.136;8.830;2023-07-30T06:00:07;2.75;;;2.55;;
75760;SDS011;64373;46.136;8.830;2023-07-30T06:02:33;2.95;;;2.65;;
75760;SDS011;64373;46.136;8.830;2023-07-30T06:04:58;2.42;;;2.22;;
75760;SDS011;64373;46.136;8.830;2023-07-30T06:07:24;2.90;;;2.70;;
75760;SDS011;64373;46.136;8.830;2023-07-30T06:09:49;2.85;;;2.65;;
75760;SDS011;64373;46.136;8.830;2023-07-30T06:12:15;3.08;;;2.80;;
75760;SDS011;64373;46.136;8.830;2023-07-30T06:14:40;3.47;;;2.80;;
75760;SDS011;64373;46.136;8.830;2023-07-30T06:17:06;3.85;;;2.92;;
75760;SDS011;64373;46.136;8.830;2023-07-30T06:19:31;3.70;;;2.55;;
75760;SDS011;64373;46.136;8.830;2023-07-30T06:21:57;2.97;;;2.53;;
75760;SDS011;64373;46.136;8.830;2023-07-30T06:24:23;2.75;;;2.55;;
75760;SDS011;64373;46.136;8.830;2023-07-30T06:26:48;5.00;;;3.10;;
75760;SDS011;64373;46.136;8.830;2023-07-30T06:29:14;3.15;;;2.35;;
75760;SDS011;64373;46.136;8.830;2023-07-30T06:31:40;3.00;;;2.70;;
75760;SDS011;64373;46.136;8.830;2023-07-30T06:34:05;3.22;;;2.92;;
75760;SDS011;64373;46.136;8.830;2023-07-30T06:36:31;3.10;;;2.80;;
75760;SDS011;64373;46.136;8.830;2023-07-30T06:38:57;3.50;;;3.00;;
75760;SDS011;64373;46.136;8.830;2023-07-30T06:41:22;2.83;;;2.47;;
75760;SDS011;64373;46.136;8.830;2023-07-30T06:43:49;2.78;;;2.40;;
75760;SDS011;64373;46.136;8.830;2023-07-30T06:46:14;3.00;;;2.60;;
75760;SDS011;64373;46.136;8.830;2023-07-30T06:48:40;3.38;;;2.55;;
75760;SDS011;64373;46.136;8.830;2023-07-30T06:51:06;3.10;;;2.40;;
75760;SDS011;64373;46.136;8.830;2023-07-30T06:53:32;2.58;;;2.28;;
75760;SDS011;64373;46.136;8.830;2023-07-30T06:55:58;2.60;;;2.13;;
75760;SDS011;64373;46.136;8.830;2023-07-30T06:58:24;2.78;;;2.22;;
75760;SDS011;64373;46.136;8.830;2023-07-30T07:00:49;3.85;;;2.60;;
75760;SDS011;64373;46.136;8.830;2023-07-30T07:03:15;3.47;;;3.08;;
75760;SDS011;64373;46.136;8.830;2023-07-30T07:05:40;3.92;;;3.20;;
75760;SDS011;64373;46.136;8.830;2023-07-30T07:08:06;2.72;;;2.53;;
75760;SDS011;64373;46.136;8.830;2023-07-30T07:10:31;3.17;;;2.45;;
75760;SDS011;64373;46.136;8.830;2023-07-30T07:12:57;3.20;;;2.90;;
75760;SDS011;64373;46.136;8.830;2023-07-30T07:15:22;3.55;;;3.25;;
75760;SDS011;64373;46.136;8.830;2023-07-30T07:17:47;3.13;;;2.83;;
75760;SDS011;64373;46.136;8.830;2023-07-30T07:20:13;3.83;;;2.83;;
75760;SDS011;64373;46.136;8.830;2023-07-30T07:22:39;4.13;;;3.15;;
75760;SDS011;64373;46.136;8.830;2023-07-30T07:25:04;2.85;;;2.55;;
75760;SDS011;64373;46.136;8.830;2023-07-30T07:27:30;3.33;;;2.70;;
75760;SDS011;64373;46.136;8.830;2023-07-30T07:29:56;2.60;;;2.40;;
75760;SDS011;64373;46.136;8.830;2023-07-30T07:32:21;3.10;;;2.80;;
75760;SDS011;64373;46.136;8.830;2023-07-30T07:34:47;2.75;;;2.22;;
75760;SDS011;64373;46.136;8.830;2023-07-30T07:37:14;3.22;;;2.92;;
75760;SDS011;64373;46.136;8.830;2023-07-30T07:39:44;2.88;;;2.67;;
75760;SDS011;64373;46.136;8.830;2023-07-30T07:42:12;2.75;;;2.53;;
75760;SDS011;64373;46.136;8.830;2023-07-30T07:44:40;3.20;;;2.90;;
75760;SDS011;64373;46.136;8.830;2023-07-30T07:47:07;4.05;;;3.15;;
75760;SDS011;64373;46.136;8.830;2023-07-30T07:49:33;3.05;;;2.78;;
75760;SDS011;64373;46.136;8.830;2023-07-30T07:51:59;3.67;;;2.90;;
75760;SDS011;64373;46.136;8.830;2023-07-30T07:54:25;2.92;;;2.63;;
75760;SDS011;64373;46.136;8.830;2023-07-30T07:56:50;3.63;;;2.90;;
75760;SDS011;64373;46.136;8.830;2023-07-30T07:59:16;3.20;;;2.90;;
75760;SDS011;64373;46.136;8.830;2023-07-30T08:01:42;3.35;;;3.05;;
75760;SDS011;64373;46.136;8.830;2023-07-30T08:04:11;3.50;;;3.17;;
75760;SDS011;64373;46.136;8.830;2023-07-30T08:06:42;3.10;;;2.78;;
75760;SDS011;64373;46.136;8.830;2023-07-30T08:09:08;3.47;;;3.17;;
75760;SDS011;64373;46.136;8.830;2023-07-30T08:11:33;3.35;;;2.80;;
75760;SDS011;64373;46.136;8.830;2023-07-30T08:13:59;3.72;;;2.72;;
75760;SDS011;64373;46.136;8.830;2023-07-30T08:16:25;3.92;;;3.10;;
75760;SDS011;64373;46.136;8.830;2023-07-30T08:18:50;3.03;;;2.67;;
75760;SDS011;64373;46.136;8.830;2023-07-30T08:21:16;3.20;;;2.90;;
75760;SDS011;64373;46.136;8.830;2023-07-30T08:23:43;3.80;;;3.20;;
75760;SDS011;64373;46.136;8.830;2023-07-30T08:26:09;3.10;;;2.67;;
75760;SDS011;64373;46.136;8.830;2023-07-30T08:28:35;4.78;;;2.78;;
75760;SDS011;64373;46.136;8.830;2023-07-30T08:31:01;3.33;;;2.38;;
75760;SDS011;64373;46.136;8.830;2023-07-30T08:33:27;2.88;;;2.67;;
75760;SDS011;64373;46.136;8.830;2023-07-30T08:35:56;3.42;;;3.13;;
75760;SDS011;64373;46.136;8.830;2023-07-30T08:38:22;3.67;;;3.38;;
75760;SDS011;64373;46.136;8.830;2023-07-30T08:40:48;4.63;;;3.00;;
75760;SDS011;64373;46.136;8.830;2023-07-30T08:43:15;3.08;;;2.78;;
75760;SDS011;64373;46.136;8.830;2023-07-30T08:45:41;3.28;;;2.50;;
75760;SDS011;64373;46.136;8.830;2023-07-30T08:48:07;4.88;;;3.35;;
75760;SDS011;64373;46.136;8.830;2023-07-30T08:50:33;3.25;;;2.63;;
75760;SDS011;64373;46.136;8.830;2023-07-30T08:53:00;2.95;;;2.65;;
75760;SDS011;64373;46.136;8.830;2023-07-30T08:55:33;3.45;;;3.03;;
75760;SDS011;64373;46.136;8.830;2023-07-30T08:58:13;3.45;;;3.15;;
75760;SDS011;64373;46.136;8.830;2023-07-30T09:00:43;3.30;;;3.00;;
75760;SDS011;64373;46.136;8.830;2023-07-30T09:03:09;3.95;;;3.05;;
75760;SDS011;64373;46.136;8.830;2023-07-30T09:05:35;2.90;;;2.70;;
75760;SDS011;64373;46.136;8.830;2023-07-30T09:08:02;4.13;;;3.25;;
75760;SDS011;64373;46.136;8.830;2023-07-30T09:10:27;3.00;;;2.70;;
75760;SDS011;64373;46.136;8.830;2023-07-30T09:12:53;2.97;;;2.78;;
75760;SDS011;64373;46.136;8.830;2023-07-30T09:15:20;3.08;;;2.78;;
75760;SDS011;64373;46.136;8.830;2023-07-30T09:17:55;3.40;;;2.85;;
75760;SDS011;64373;46.136;8.830;2023-07-30T09:20:21;3.47;;;3.10;;
75760;SDS011;64373;46.136;8.830;2023-07-30T09:22:46;3.97;;;3.30;;
75760;SDS011;64373;46.136;8.830;2023-07-30T09:25:14;2.83;;;2.63;;
75760;SDS011;64373;46.136;8.830;2023-07-30T09:27:42;3.55;;;2.80;;
75760;SDS011;64373;46.136;8.830;2023-07-30T09:30:07;3.60;;;3.30;;
75760;SDS011;64373;46.136;8.830;2023-07-30T09:32:33;3.05;;;2.75;;
75760;SDS011;64373;46.136;8.830;2023-07-30T09:35:09;3.30;;;2.83;;
75760;SDS011;64373;46.136;8.830;2023-07-30T09:37:36;2.50;;;2.30;;
75760;SDS011;64373;46.136;8.830;2023-07-30T09:40:05;2.42;;;2.10;;
75760;SDS011;64373;46.136;8.830;2023-07-30T09:42:32;2.50;;;2.30;;
75760;SDS011;64373;46.136;8.830;2023-07-30T09:45:03;3.22;;;2.47;;
75760;SDS011;64373;46.136;8.830;2023-07-30T09:47:32;2.55;;;2.35;;
75760;SDS011;64373;46.136;8.830;2023-07-30T09:49:59;2.70;;;2.50;;
75760;SDS011;64373;46.136;8.830;2023-07-30T09:52:25;2.80;;;2.60;;
75760;SDS011;64373;46.136;8.830;2023-07-30T09:54:51;2.30;;;2.10;;
75760;SDS011;64373;46.136;8.830;2023-07-30T09:57:17;2.70;;;2.50;;
75760;SDS011;64373;46.136;8.830;2023-07-30T09:59:43;2.92;;;2.70;;
75760;SDS011;64373;46.136;8.830;2023-07-30T10:02:08;3.30;;;3.00;;
75760;SDS011;64373;46.136;8.830;2023-07-30T10:04:36;2.83;;;2.50;;
75760;SDS011;64373;46.136;8.830;2023-07-30T10:07:08;3.05;;;2.75;;
75760;SDS011;64373;46.136;8.830;2023-07-30T10:09:38;3.05;;;2.85;;
75760;SDS011;64373;46.136;8.830;2023-07-30T10:12:12;3.17;;;2.70;;
75760;SDS011;64373;46.136;8.830;2023-07-30T10:14:41;3.08;;;2.65;;
75760;SDS011;64373;46.136;8.830;2023-07-30T10:17:09;3.55;;;2.80;;
75760;SDS011;64373;46.136;8.830;2023-07-30T10:19:35;2.97;;;2.72;;
75760;SDS011;64373;46.136;8.830;2023-07-30T10:24:55;3.03;;;2.83;;
75760;SDS011;64373;46.136;8.830;2023-07-30T10:27:26;3.10;;;2.78;;
75760;SDS011;64373;46.136;8.830;2023-07-30T10:38:18;3.25;;;2.95;;
75760;SDS011;64373;46.136;8.830;2023-07-30T10:43:39;2.63;;;2.42;;
75760;SDS011;64373;46.136;8.830;2023-07-30T10:46:07;2.53;;;2.30;;
75760;SDS011;64373;46.136;8.830;2023-07-30T10:48:41;3.47;;;3.17;;
75760;SDS011;64373;46.136;8.830;2023-07-30T10:51:11;3.25;;;2.95;;
75760;SDS011;64373;46.136;8.830;2023-07-30T10:53:38;3.42;;;3.00;;
75760;SDS011;64373;46.136;8.830;2023-07-30T10:56:07;3.35;;;3.05;;
75760;SDS011;64373;46.136;8.830;2023-07-30T10:58:34;2.88;;;2.67;;
75760;SDS011;64373;46.136;8.830;2023-07-30T11:01:01;3.17;;;2.85;;
75760;SDS011;64373;46.136;8.830;2023-07-30T11:03:28;3.05;;;2.75;;
75760;SDS011;64373;46.136;8.830;2023-07-30T11:05:54;3.13;;;2.85;;
75760;SDS011;64373;46.136;8.830;2023-07-30T11:08:36;3.20;;;3.00;;
75760;SDS011;64373;46.136;8.830;2023-07-30T11:11:07;3.10;;;2.80;;
75760;SDS011;64373;46.136;8.830;2023-07-30T11:13:37;3.35;;;3.05;;
75760;SDS011;64373;46.136;8.830;2023-07-30T11:16:06;2.75;;;2.53;;
75760;SDS011;64373;46.136;8.830;2023-07-30T11:18:33;3.20;;;2.90;;
75760;SDS011;64373;46.136;8.830;2023-07-30T11:21:03;2.97;;;2.70;;
75760;SDS011;64373;46.136;8.830;2023-07-30T11:23:39;3.70;;;3.17;;
75760;SDS011;64373;46.136;8.830;2023-07-30T11:26:07;3.95;;;2.95;;
75760;SDS011;64373;46.136;8.830;2023-07-30T11:28:35;3.55;;;3.25;;
75760;SDS011;64373;46.136;8.830;2023-07-30T11:31:02;3.00;;;2.78;;
75760;SDS011;64373;46.136;8.830;2023-07-30T11:33:32;2.83;;;2.35;;
75760;SDS011;64373;46.136;8.830;2023-07-30T11:36:02;3.33;;;3.03;;
75760;SDS011;64373;46.136;8.830;2023-07-30T11:38:28;3.00;;;2.80;;
75760;SDS011;64373;46.136;8.830;2023-07-30T11:40:55;3.10;;;2.90;;
75760;SDS011;64373;46.136;8.830;2023-07-30T11:43:22;3.30;;;3.00;;
75760;SDS011;64373;46.136;8.830;2023-07-30T11:45:48;3.60;;;3.28;;
75760;SDS011;64373;46.136;8.830;2023-07-30T11:48:14;3.50;;;3.20;;
75760;SDS011;64373;46.136;8.830;2023-07-30T11:50:52;3.55;;;3.25;;
75760;SDS011;64373;46.136;8.830;2023-07-30T11:53:18;3.78;;;2.90;;
75760;SDS011;64373;46.136;8.830;2023-07-30T11:55:45;3.30;;;3.00;;
75760;SDS011;64373;46.136;8.830;2023-07-30T11:58:11;3.65;;;3.00;;
75760;SDS011;64373;46.136;8.830;2023-07-30T12:00:38;3.28;;;3.00;;
75760;SDS011;64373;46.136;8.830;2023-07-30T12:03:06;3.20;;;2.95;;
75760;SDS011;64373;46.136;8.830;2023-07-30T12:05:38;3.45;;;3.10;;
75760;SDS011;64373;46.136;8.830;2023-07-30T12:08:04;3.25;;;2.95;;
75760;SDS011;64373;46.136;8.830;2023-07-30T12:10:41;3.33;;;2.90;;
75760;SDS011;64373;46.136;8.830;2023-07-30T12:13:19;3.00;;;2.70;;
75760;SDS011;64373;46.136;8.830;2023-07-30T12:15:54;3.65;;;3.35;;
75760;SDS011;64373;46.136;8.830;2023-07-30T12:18:21;3.35;;;3.05;;
75760;SDS011;64373;46.136;8.830;2023-07-30T12:20:49;3.33;;;3.03;;
75760;SDS011;64373;46.136;8.830;2023-07-30T12:25:44;3.25;;;2.88;;
75760;SDS011;64373;46.136;8.830;2023-07-30T12:28:11;3.03;;;2.83;;
75760;SDS011;64373;46.136;8.830;2023-07-30T12:30:36;3.00;;;2.80;;
75760;SDS011;64373;46.136;8.830;2023-07-30T12:33:02;3.53;;;3.10;;
75760;SDS011;64373;46.136;8.830;2023-07-30T12:35:29;3.03;;;2.72;;
75760;SDS011;64373;46.136;8.830;2023-07-30T12:37:56;3.25;;;2.95;;
75760;SDS011;64373;46.136;8.830;2023-07-30T12:40:22;3.20;;;2.90;;
75760;SDS011;64373;46.136;8.830;2023-07-30T12:42:48;3.28;;;2.92;;
75760;SDS011;64373;46.136;8.830;2023-07-30T12:45:13;3.28;;;2.97;;
75760;SDS011;64373;46.136;8.830;2023-07-30T12:47:40;3.47;;;3.10;;
75760;SDS011;64373;46.136;8.830;2023-07-30T12:50:06;2.92;;;2.70;;
75760;SDS011;64373;46.136;8.830;2023-07-30T12:52:32;3.30;;;3.00;;
75760;SDS011;64373;46.136;8.830;2023-07-30T12:54:59;3.40;;;2.97;;
75760;SDS011;64373;46.136;8.830;2023-07-30T12:57:25;4.15;;;2.80;;
75760;SDS011;64373;46.136;8.830;2023-07-30T12:59:51;3.75;;;3.35;;
75760;SDS011;64373;46.136;8.830;2023-07-30T13:02:17;3.33;;;3.03;;
75760;SDS011;64373;46.136;8.830;2023-07-30T13:04:42;3.55;;;3.22;;
75760;SDS011;64373;46.136;8.830;2023-07-30T13:07:08;3.17;;;2.80;;
75760;SDS011;64373;46.136;8.830;2023-07-30T13:09:34;3.10;;;2.80;;
75760;SDS011;64373;46.136;8.830;2023-07-30T13:11:59;3.58;;;2.65;;
75760;SDS011;64373;46.136;8.830;2023-07-30T13:14:25;2.80;;;2.60;;
75760;SDS011;64373;46.136;8.830;2023-07-30T13:16:51;2.75;;;2.50;;
75760;SDS011;64373;46.136;8.830;2023-07-30T13:19:16;2.60;;;2.40;;
75760;SDS011;64373;46.136;8.830;2023-07-30T13:21:42;2.72;;;2.53;;
75760;SDS011;64373;46.136;8.830;2023-07-30T13:24:09;2.80;;;2.50;;
75760;SDS011;64373;46.136;8.830;2023-07-30T13:26:35;2.65;;;2.45;;
75760;SDS011;64373;46.136;8.830;2023-07-30T13:29:01;2.45;;;2.25;;
75760;SDS011;64373;46.136;8.830;2023-07-30T13:31:28;2.55;;;2.35;;
75760;SDS011;64373;46.136;8.830;2023-07-30T13:33:54;2.78;;;2.58;;
75760;SDS011;64373;46.136;8.830;2023-07-30T13:36:19;2.47;;;2.28;;
75760;SDS011;64373;46.136;8.830;2023-07-30T13:38:45;2.50;;;2.30;;
75760;SDS011;64373;46.136;8.830;2023-07-30T13:41:10;3.08;;;2.60;;
75760;SDS011;64373;46.136;8.830;2023-07-30T13:43:36;2.33;;;2.08;;
75760;SDS011;64373;46.136;8.830;2023-07-30T13:46:02;3.00;;;2.70;;
75760;SDS011;64373;46.136;8.830;2023-07-30T13:48:27;3.30;;;3.00;;
75760;SDS011;64373;46.136;8.830;2023-07-30T13:50:53;3.67;;;3.38;;
75760;SDS011;64373;46.136;8.830;2023-07-30T13:53:19;3.28;;;2.97;;
75760;SDS011;64373;46.136;8.830;2023-07-30T13:55:45;3.00;;;2.78;;
75760;SDS011;64373;46.136;8.830;2023-07-30T13:58:11;3.10;;;2.75;;
75760;SDS011;64373;46.136;8.830;2023-07-30T14:00:39;2.85;;;2.65;;
75760;SDS011;64373;46.136;8.830;2023-07-30T14:03:07;3.03;;;2.80;;
75760;SDS011;64373;46.136;8.830;2023-07-30T14:05:32;2.60;;;2.40;;
75760;SDS011;64373;46.136;8.830;2023-07-30T14:07:58;3.80;;;2.70;;
75760;SDS011;64373;46.136;8.830;2023-07-30T14:10:24;2.97;;;2.78;;
75760;SDS011;64373;46.136;8.830;2023-07-30T14:13:03;3.00;;;2.80;;
75760;SDS011;64373;46.136;8.830;2023-07-30T14:15:31;4.47;;;3.17;;
75760;SDS011;64373;46.136;8.830;2023-07-30T14:17:58;3.17;;;2.80;;
75760;SDS011;64373;46.136;8.830;2023-07-30T14:20:24;3.40;;;3.10;;
75760;SDS011;64373;46.136;8.830;2023-07-30T14:22:49;3.50;;;3.20;;
75760;SDS011;64373;46.136;8.830;2023-07-30T14:25:16;3.42;;;3.10;;
75760;SDS011;64373;46.136;8.830;2023-07-30T14:27:42;3.17;;;2.85;;
75760;SDS011;64373;46.136;8.830;2023-07-30T14:30:08;3.45;;;3.15;;
75760;SDS011;64373;46.136;8.830;2023-07-30T14:32:34;3.30;;;3.00;;
75760;SDS011;64373;46.136;8.830;2023-07-30T14:35:18;3.30;;;3.10;;
75760;SDS011;64373;46.136;8.830;2023-07-30T14:37:48;3.47;;;3.17;;
75760;SDS011;64373;46.136;8.830;2023-07-30T14:40:22;3.95;;;3.65;;
75760;SDS011;64373;46.136;8.830;2023-07-30T14:42:47;2.90;;;2.70;;
75760;SDS011;64373;46.136;8.830;2023-07-30T14:45:13;3.95;;;3.50;;
75760;SDS011;64373;46.136;8.830;2023-07-30T14:47:39;3.58;;;3.20;;
75760;SDS011;64373;46.136;8.830;2023-07-30T14:50:05;3.92;;;3.53;;
75760;SDS011;64373;46.136;8.830;2023-07-30T14:52:31;3.30;;;3.00;;
75760;SDS011;64373;46.136;8.830;2023-07-30T14:54:57;2.88;;;2.63;;
75760;SDS011;64373;46.136;8.830;2023-07-30T14:57:24;3.30;;;2.80;;
75760;SDS011;64373;46.136;8.830;2023-07-30T14:59:50;3.17;;;2.88;;